sensor_id;sensor_type;location;lat;lon;timestamp;P1;durP1;ratioP1;P2;durP2;ratioP2
51612;SDS011;37694;51.748;14.326;2023-07-20T00:01:03;3.58;;;2.17;;
51612;SDS011;37694;51.748;14.326;2023-07-20T00:03:29;2.58;;;2.03;;
51612;SDS011;37694;51.748;14.326;2023-07-20T00:05:55;2.35;;;1.77;;
51612;SDS011;37694;51.748;14.326;2023-07-20T00:08:20;2.20;;;1.70;;
51612;SDS011;37694;51.748;14.326;2023-07-20T00:10:46;2.10;;;1.90;;
51612;SDS011;37694;51.748;14.326;2023-07-20T00:13:12;1.63;;;1.50;;
51612;SDS011;37694;51.748;14.326;2023-07-20T00:15:38;2.40;;;1.80;;
51612;SDS011;37694;51.748;14.326;2023-07-20T00:18:04;2.63;;;1.70;;
51612;SDS011;37694;51.748;14.326;2023-07-20T00:20:29;2.70;;;1.95;;
51612;SDS011;37694;51.748;14.326;2023-07-20T00:22:55;2.95;;;1.90;;
51612;SDS011;37694;51.748;14.326;2023-07-20T00:25:23;3.63;;;1.95;;
51612;SDS011;37694;51.748;14.326;2023-07-20T00:27:49;2.83;;;1.92;;
51612;SDS011;37694;51.748;14.326;2023-07-20T00:30:15;3.20;;;2.15;;
51612;SDS011;37694;51.748;14.326;2023-07-20T00:32:44;3.28;;;1.88;;
51612;SDS011;37694;51.748;14.326;2023-07-20T00:35:10;2.70;;;2.03;;
51612;SDS011;37694;51.748;14.326;2023-07-20T00:37:36;2.13;;;1.92;;
51612;SDS011;37694;51.748;14.326;2023-07-20T00:40:04;4.75;;;1.55;;
51612;SDS011;37694;51.748;14.326;2023-07-20T00:42:31;4.22;;;1.80;;
51612;SDS011;37694;51.748;14.326;2023-07-20T00:44:56;2.00;;;1.80;;
51612;SDS011;37694;51.748;14.326;2023-07-20T00:47:22;2.88;;;1.67;;
51612;SDS011;37694;51.748;14.326;2023-07-20T00:49:48;2.05;;;1.67;;
51612;SDS011;37694;51.748;14.326;2023-07-20T00:52:15;1.85;;;1.65;;
51612;SDS011;37694;51.748;14.326;2023-07-20T00:54:41;1.70;;;1.60;;
51612;SDS011;37694;51.748;14.326;2023-07-20T00:57:07;1.65;;;1.55;;
51612;SDS011;37694;51.748;14.326;2023-07-20T00:59:34;2.22;;;1.33;;
51612;SDS011;37694;51.748;14.326;2023-07-20T01:02:00;2.13;;;1.60;;
51612;SDS011;37694;51.748;14.326;2023-07-20T01:04:26;1.58;;;1.48;;
51612;SDS011;37694;51.748;14.326;2023-07-20T01:07:17;3.22;;;2.33;;
51612;SDS011;37694;51.748;14.326;2023-07-20T01:10:32;2.88;;;1.73;;
51612;SDS011;37694;51.748;14.326;2023-07-20T01:12:43;2.25;;;1.90;;
51612;SDS011;37694;51.748;14.326;2023-07-20T01:15:12;1.83;;;1.40;;
51612;SDS011;37694;51.748;14.326;2023-07-20T01:17:38;1.60;;;1.50;;
51612;SDS011;37694;51.748;14.326;2023-07-20T01:20:04;2.00;;;1.65;;
51612;SDS011;37694;51.748;14.326;2023-07-20T01:31:24;1.50;;;1.40;;
51612;SDS011;37694;51.748;14.326;2023-07-20T01:33:53;2.25;;;1.75;;
51612;SDS011;37694;51.748;14.326;2023-07-20T01:36:22;2.30;;;1.58;;
51612;SDS011;37694;51.748;14.326;2023-07-20T01:38:52;1.90;;;1.75;;
51612;SDS011;37694;51.748;14.326;2023-07-20T01:41:19;5.15;;;1.70;;
51612;SDS011;37694;51.748;14.326;2023-07-20T01:43:46;3.55;;;1.40;;
51612;SDS011;37694;51.748;14.326;2023-07-20T01:46:11;1.65;;;1.48;;
51612;SDS011;37694;51.748;14.326;2023-07-20T01:48:37;1.77;;;1.67;;
51612;SDS011;37694;51.748;14.326;2023-07-20T01:51:03;6.75;;;2.40;;
51612;SDS011;37694;51.748;14.326;2023-07-20T01:53:32;3.83;;;1.80;;
51612;SDS011;37694;51.748;14.326;2023-07-20T01:55:58;4.65;;;1.30;;
51612;SDS011;37694;51.748;14.326;2023-07-20T01:58:23;3.95;;;1.80;;
51612;SDS011;37694;51.748;14.326;2023-07-20T02:00:49;1.80;;;1.60;;
51612;SDS011;37694;51.748;14.326;2023-07-20T02:03:15;2.50;;;1.52;;
51612;SDS011;37694;51.748;14.326;2023-07-20T02:05:44;2.00;;;1.45;;
51612;SDS011;37694;51.748;14.326;2023-07-20T02:08:10;3.08;;;1.40;;
51612;SDS011;37694;51.748;14.326;2023-07-20T02:10:36;1.77;;;1.67;;
51612;SDS011;37694;51.748;14.326;2023-07-20T02:13:03;2.33;;;1.40;;
51612;SDS011;37694;51.748;14.326;2023-07-20T02:15:29;2.75;;;1.35;;
51612;SDS011;37694;51.748;14.326;2023-07-20T02:17:54;1.58;;;1.30;;
51612;SDS011;37694;51.748;14.326;2023-07-20T02:20:20;1.98;;;1.40;;
51612;SDS011;37694;51.748;14.326;2023-07-20T02:22:46;1.38;;;1.27;;
51612;SDS011;37694;51.748;14.326;2023-07-20T02:25:12;2.45;;;1.58;;
51612;SDS011;37694;51.748;14.326;2023-07-20T02:27:37;6.07;;;1.60;;
51612;SDS011;37694;51.748;14.326;2023-07-20T02:30:04;5.70;;;1.85;;
51612;SDS011;37694;51.748;14.326;2023-07-20T02:32:30;1.55;;;1.20;;
51612;SDS011;37694;51.748;14.326;2023-07-20T02:34:56;4.65;;;1.70;;
51612;SDS011;37694;51.748;14.326;2023-07-20T02:37:22;3.55;;;1.40;;
51612;SDS011;37694;51.748;14.326;2023-07-20T02:39:48;2.45;;;1.60;;
51612;SDS011;37694;51.748;14.326;2023-07-20T02:42:14;1.75;;;1.50;;
51612;SDS011;37694;51.748;14.326;2023-07-20T02:44:40;1.23;;;1.23;;
51612;SDS011;37694;51.748;14.326;2023-07-20T02:47:05;2.17;;;1.73;;
51612;SDS011;37694;51.748;14.326;2023-07-20T02:49:31;1.90;;;1.48;;
51612;SDS011;37694;51.748;14.326;2023-07-20T02:51:57;2.05;;;1.33;;
51612;SDS011;37694;51.748;14.326;2023-07-20T02:54:22;2.05;;;1.63;;
51612;SDS011;37694;51.748;14.326;2023-07-20T02:56:48;4.10;;;1.50;;
51612;SDS011;37694;51.748;14.326;2023-07-20T02:59:14;2.20;;;1.42;;
51612;SDS011;37694;51.748;14.326;2023-07-20T03:01:39;2.00;;;1.27;;
51612;SDS011;37694;51.748;14.326;2023-07-20T03:04:07;3.50;;;1.38;;
51612;SDS011;37694;51.748;14.326;2023-07-20T03:06:35;3.40;;;1.25;;
51612;SDS011;37694;51.748;14.326;2023-07-20T03:09:01;1.58;;;1.45;;
51612;SDS011;37694;51.748;14.326;2023-07-20T03:11:27;2.55;;;1.52;;
51612;SDS011;37694;51.748;14.326;2023-07-20T03:13:52;1.33;;;1.10;;
51612;SDS011;37694;51.748;14.326;2023-07-20T03:16:19;2.00;;;1.20;;
51612;SDS011;37694;51.748;14.326;2023-07-20T03:18:45;1.40;;;1.20;;
51612;SDS011;37694;51.748;14.326;2023-07-20T03:21:11;1.33;;;1.23;;
51612;SDS011;37694;51.748;14.326;2023-07-20T03:23:38;1.42;;;1.35;;
51612;SDS011;37694;51.748;14.326;2023-07-20T03:26:04;1.67;;;1.10;;
51612;SDS011;37694;51.748;14.326;2023-07-20T03:28:30;1.83;;;1.40;;
51612;SDS011;37694;51.748;14.326;2023-07-20T03:30:56;4.85;;;1.33;;
51612;SDS011;37694;51.748;14.326;2023-07-20T03:33:24;2.55;;;1.73;;
51612;SDS011;37694;51.748;14.326;2023-07-20T03:35:51;1.67;;;1.08;;
51612;SDS011;37694;51.748;14.326;2023-07-20T03:38:17;1.00;;;1.00;;
51612;SDS011;37694;51.748;14.326;2023-07-20T03:40:53;2.08;;;1.48;;
51612;SDS011;37694;51.748;14.326;2023-07-20T03:43:21;1.35;;;1.10;;
51612;SDS011;37694;51.748;14.326;2023-07-20T03:45:51;1.98;;;1.30;;
51612;SDS011;37694;51.748;14.326;2023-07-20T03:48:18;1.67;;;1.00;;
51612;SDS011;37694;51.748;14.326;2023-07-20T03:50:45;1.15;;;1.05;;
51612;SDS011;37694;51.748;14.326;2023-07-20T03:53:12;4.03;;;1.30;;
51612;SDS011;37694;51.748;14.326;2023-07-20T03:55:38;2.45;;;1.30;;
51612;SDS011;37694;51.748;14.326;2023-07-20T03:58:05;1.20;;;1.10;;
51612;SDS011;37694;51.748;14.326;2023-07-20T04:00:31;1.30;;;1.20;;
51612;SDS011;37694;51.748;14.326;2023-07-20T04:02:57;1.75;;;1.25;;
51612;SDS011;37694;51.748;14.326;2023-07-20T04:05:24;3.03;;;1.50;;
51612;SDS011;37694;51.748;14.326;2023-07-20T04:07:50;2.45;;;1.40;;
51612;SDS011;37694;51.748;14.326;2023-07-20T04:10:16;1.30;;;1.20;;
51612;SDS011;37694;51.748;14.326;2023-07-20T04:12:42;1.63;;;1.50;;
51612;SDS011;37694;51.748;14.326;2023-07-20T04:15:09;1.10;;;1.10;;
51612;SDS011;37694;51.748;14.326;2023-07-20T04:17:34;1.42;;;1.33;;
51612;SDS011;37694;51.748;14.326;2023-07-20T04:20:00;3.42;;;1.48;;
51612;SDS011;37694;51.748;14.326;2023-07-20T04:22:26;1.48;;;1.10;;
51612;SDS011;37694;51.748;14.326;2023-07-20T04:24:52;1.33;;;1.13;;
51612;SDS011;37694;51.748;14.326;2023-07-20T04:27:17;0.82;;;0.82;;
51612;SDS011;37694;51.748;14.326;2023-07-20T04:29:43;1.33;;;1.23;;
51612;SDS011;37694;51.748;14.326;2023-07-20T04:32:09;2.40;;;1.27;;
51612;SDS011;37694;51.748;14.326;2023-07-20T04:34:34;1.48;;;1.38;;
51612;SDS011;37694;51.748;14.326;2023-07-20T04:37:02;3.25;;;1.05;;
51612;SDS011;37694;51.748;14.326;2023-07-20T04:39:29;1.40;;;1.30;;
51612;SDS011;37694;51.748;14.326;2023-07-20T04:41:55;4.68;;;1.00;;
51612;SDS011;37694;51.748;14.326;2023-07-20T04:44:21;1.70;;;1.60;;
51612;SDS011;37694;51.748;14.326;2023-07-20T04:46:47;1.77;;;1.40;;
51612;SDS011;37694;51.748;14.326;2023-07-20T04:49:12;1.98;;;1.35;;
51612;SDS011;37694;51.748;14.326;2023-07-20T04:51:38;1.42;;;1.10;;
51612;SDS011;37694;51.748;14.326;2023-07-20T04:54:04;2.80;;;1.10;;
51612;SDS011;37694;51.748;14.326;2023-07-20T04:56:30;2.03;;;1.02;;
51612;SDS011;37694;51.748;14.326;2023-07-20T04:58:56;1.48;;;1.10;;
51612;SDS011;37694;51.748;14.326;2023-07-20T05:01:22;5.07;;;1.40;;
51612;SDS011;37694;51.748;14.326;2023-07-20T05:03:48;3.70;;;1.48;;
51612;SDS011;37694;51.748;14.326;2023-07-20T05:06:14;6.32;;;1.60;;
51612;SDS011;37694;51.748;14.326;2023-07-20T05:08:40;5.15;;;1.58;;
51612;SDS011;37694;51.748;14.326;2023-07-20T05:11:06;7.05;;;1.80;;
51612;SDS011;37694;51.748;14.326;2023-07-20T05:13:32;8.13;;;2.10;;
51612;SDS011;37694;51.748;14.326;2023-07-20T05:15:58;6.88;;;2.17;;
51612;SDS011;37694;51.748;14.326;2023-07-20T05:18:24;8.50;;;2.22;;
51612;SDS011;37694;51.748;14.326;2023-07-20T05:20:50;11.80;;;2.50;;
51612;SDS011;37694;51.748;14.326;2023-07-20T05:23:19;13.15;;;2.78;;
51612;SDS011;37694;51.748;14.326;2023-07-20T05:25:57;5.68;;;2.15;;
51612;SDS011;37694;51.748;14.326;2023-07-20T05:28:24;2.70;;;1.63;;
51612;SDS011;37694;51.748;14.326;2023-07-20T05:30:51;11.85;;;2.17;;
51612;SDS011;37694;51.748;14.326;2023-07-20T05:33:17;12.25;;;2.15;;
51612;SDS011;37694;51.748;14.326;2023-07-20T05:35:44;13.25;;;3.13;;
51612;SDS011;37694;51.748;14.326;2023-07-20T05:38:09;10.43;;;3.33;;
51612;SDS011;37694;51.748;14.326;2023-07-20T05:40:37;10.73;;;2.72;;
51612;SDS011;37694;51.748;14.326;2023-07-20T05:43:03;40.60;;;3.67;;
51612;SDS011;37694;51.748;14.326;2023-07-20T05:45:29;20.02;;;4.38;;
51612;SDS011;37694;51.748;14.326;2023-07-20T05:47:54;13.45;;;3.90;;
51612;SDS011;37694;51.748;14.326;2023-07-20T05:50:20;17.00;;;3.20;;
51612;SDS011;37694;51.748;14.326;2023-07-20T05:52:46;8.90;;;3.25;;
51612;SDS011;37694;51.748;14.326;2023-07-20T05:55:12;12.38;;;2.83;;
51612;SDS011;37694;51.748;14.326;2023-07-20T05:57:38;15.02;;;2.85;;
51612;SDS011;37694;51.748;14.326;2023-07-20T06:00:08;8.65;;;2.25;;
51612;SDS011;37694;51.748;14.326;2023-07-20T06:02:34;11.82;;;2.33;;
51612;SDS011;37694;51.748;14.326;2023-07-20T06:05:00;5.55;;;1.90;;
51612;SDS011;37694;51.748;14.326;2023-07-20T06:07:26;5.78;;;2.10;;
51612;SDS011;37694;51.748;14.326;2023-07-20T06:09:52;4.05;;;2.40;;
51612;SDS011;37694;51.748;14.326;2023-07-20T06:12:18;3.63;;;1.90;;
51612;SDS011;37694;51.748;14.326;2023-07-20T06:14:44;7.72;;;2.17;;
51612;SDS011;37694;51.748;14.326;2023-07-20T06:17:09;3.55;;;1.55;;
51612;SDS011;37694;51.748;14.326;2023-07-20T06:19:35;4.28;;;1.23;;
51612;SDS011;37694;51.748;14.326;2023-07-20T06:22:01;2.63;;;1.10;;
51612;SDS011;37694;51.748;14.326;2023-07-20T06:24:27;2.25;;;1.00;;
51612;SDS011;37694;51.748;14.326;2023-07-20T06:26:52;0.90;;;0.82;;
51612;SDS011;37694;51.748;14.326;2023-07-20T06:29:18;0.80;;;0.63;;
51612;SDS011;37694;51.748;14.326;2023-07-20T06:31:44;2.65;;;0.52;;
51612;SDS011;37694;51.748;14.326;2023-07-20T06:34:10;4.25;;;1.05;;
51612;SDS011;37694;51.748;14.326;2023-07-20T06:36:35;0.75;;;0.75;;
51612;SDS011;37694;51.748;14.326;2023-07-20T06:39:01;0.60;;;0.50;;
51612;SDS011;37694;51.748;14.326;2023-07-20T06:41:27;1.08;;;0.60;;
51612;SDS011;37694;51.748;14.326;2023-07-20T06:43:53;0.55;;;0.55;;
51612;SDS011;37694;51.748;14.326;2023-07-20T06:46:23;0.47;;;0.40;;
51612;SDS011;37694;51.748;14.326;2023-07-20T06:48:49;0.57;;;0.57;;
51612;SDS011;37694;51.748;14.326;2023-07-20T06:51:15;0.57;;;0.50;;
51612;SDS011;37694;51.748;14.326;2023-07-20T06:53:41;0.40;;;0.40;;
51612;SDS011;37694;51.748;14.326;2023-07-20T06:56:07;0.55;;;0.55;;
51612;SDS011;37694;51.748;14.326;2023-07-20T06:58:32;0.60;;;0.60;;
51612;SDS011;37694;51.748;14.326;2023-07-20T07:00:58;0.32;;;0.30;;
51612;SDS011;37694;51.748;14.326;2023-07-20T07:03:24;0.70;;;0.70;;
51612;SDS011;37694;51.748;14.326;2023-07-20T07:05:50;0.25;;;0.25;;
51612;SDS011;37694;51.748;14.326;2023-07-20T07:08:19;0.50;;;0.50;;
51612;SDS011;37694;51.748;14.326;2023-07-20T07:10:45;1.92;;;0.50;;
51612;SDS011;37694;51.748;14.326;2023-07-20T07:13:11;1.08;;;0.57;;
51612;SDS011;37694;51.748;14.326;2023-07-20T07:15:36;0.40;;;0.40;;
51612;SDS011;37694;51.748;14.326;2023-07-20T07:18:02;0.47;;;0.47;;
51612;SDS011;37694;51.748;14.326;2023-07-20T07:20:28;0.60;;;0.50;;
51612;SDS011;37694;51.748;14.326;2023-07-20T07:22:55;0.50;;;0.50;;
51612;SDS011;37694;51.748;14.326;2023-07-20T07:25:22;0.22;;;0.22;;
51612;SDS011;37694;51.748;14.326;2023-07-20T07:27:47;0.75;;;0.60;;
51612;SDS011;37694;51.748;14.326;2023-07-20T07:30:13;0.40;;;0.40;;
51612;SDS011;37694;51.748;14.326;2023-07-20T07:32:39;1.13;;;0.60;;
51612;SDS011;37694;51.748;14.326;2023-07-20T07:35:05;0.63;;;0.50;;
51612;SDS011;37694;51.748;14.326;2023-07-20T07:37:31;0.60;;;0.60;;
51612;SDS011;37694;51.748;14.326;2023-07-20T07:39:56;0.40;;;0.40;;
51612;SDS011;37694;51.748;14.326;2023-07-20T07:42:22;1.27;;;0.45;;
51612;SDS011;37694;51.748;14.326;2023-07-20T07:44:48;0.75;;;0.40;;
51612;SDS011;37694;51.748;14.326;2023-07-20T07:47:14;2.72;;;0.82;;
51612;SDS011;37694;51.748;14.326;2023-07-20T07:49:39;0.50;;;0.50;;
51612;SDS011;37694;51.748;14.326;2023-07-20T07:52:05;0.63;;;0.50;;
51612;SDS011;37694;51.748;14.326;2023-07-20T07:54:31;0.43;;;0.43;;
51612;SDS011;37694;51.748;14.326;2023-07-20T07:56:57;0.93;;;0.70;;
51612;SDS011;37694;51.748;14.326;2023-07-20T07:59:22;3.65;;;0.65;;
51612;SDS011;37694;51.748;14.326;2023-07-20T08:01:48;0.40;;;0.40;;
51612;SDS011;37694;51.748;14.326;2023-07-20T08:04:14;2.58;;;0.60;;
51612;SDS011;37694;51.748;14.326;2023-07-20T08:06:39;0.95;;;0.70;;
51612;SDS011;37694;51.748;14.326;2023-07-20T08:09:05;0.70;;;0.70;;
51612;SDS011;37694;51.748;14.326;2023-07-20T08:11:31;0.60;;;0.60;;
51612;SDS011;37694;51.748;14.326;2023-07-20T08:13:59;0.52;;;0.50;;
51612;SDS011;37694;51.748;14.326;2023-07-20T08:16:25;0.50;;;0.50;;
51612;SDS011;37694;51.748;14.326;2023-07-20T08:18:51;0.60;;;0.60;;
51612;SDS011;37694;51.748;14.326;2023-07-20T08:21:17;1.10;;;0.70;;
51612;SDS011;37694;51.748;14.326;2023-07-20T08:23:42;2.17;;;0.57;;
51612;SDS011;37694;51.748;14.326;2023-07-20T08:26:08;1.83;;;0.77;;
51612;SDS011;37694;51.748;14.326;2023-07-20T08:28:34;5.53;;;1.25;;
51612;SDS011;37694;51.748;14.326;2023-07-20T08:31:00;1.85;;;0.50;;
51612;SDS011;37694;51.748;14.326;2023-07-20T08:33:25;5.80;;;0.90;;
51612;SDS011;37694;51.748;14.326;2023-07-20T08:35:54;9.95;;;1.67;;
51612;SDS011;37694;51.748;14.326;2023-07-20T08:38:21;4.68;;;1.00;;
51612;SDS011;37694;51.748;14.326;2023-07-20T08:40:47;2.78;;;1.00;;
51612;SDS011;37694;51.748;14.326;2023-07-20T08:43:13;5.45;;;1.15;;
51612;SDS011;37694;51.748;14.326;2023-07-20T08:45:43;3.42;;;1.38;;
51612;SDS011;37694;51.748;14.326;2023-07-20T08:48:11;8.43;;;1.80;;
51612;SDS011;37694;51.748;14.326;2023-07-20T08:50:37;6.82;;;1.08;;
51612;SDS011;37694;51.748;14.326;2023-07-20T08:53:03;5.95;;;1.30;;
51612;SDS011;37694;51.748;14.326;2023-07-20T08:55:29;5.65;;;1.23;;
51612;SDS011;37694;51.748;14.326;2023-07-20T08:57:57;1.90;;;1.23;;
51612;SDS011;37694;51.748;14.326;2023-07-20T09:00:24;7.15;;;1.55;;
51612;SDS011;37694;51.748;14.326;2023-07-20T09:02:52;6.88;;;1.30;;
51612;SDS011;37694;51.748;14.326;2023-07-20T09:05:18;3.92;;;1.48;;
51612;SDS011;37694;51.748;14.326;2023-07-20T09:07:45;2.42;;;1.63;;
51612;SDS011;37694;51.748;14.326;2023-07-20T09:10:11;4.13;;;1.63;;
51612;SDS011;37694;51.748;14.326;2023-07-20T09:12:41;3.65;;;1.65;;
51612;SDS011;37694;51.748;14.326;2023-07-20T09:15:07;3.70;;;1.40;;
51612;SDS011;37694;51.748;14.326;2023-07-20T09:17:35;5.63;;;1.65;;
51612;SDS011;37694;51.748;14.326;2023-07-20T09:20:07;4.70;;;1.50;;
51612;SDS011;37694;51.748;14.326;2023-07-20T09:22:36;5.22;;;1.85;;
51612;SDS011;37694;51.748;14.326;2023-07-20T09:25:08;2.00;;;1.60;;
51612;SDS011;37694;51.748;14.326;2023-07-20T09:27:41;4.22;;;1.77;;
51612;SDS011;37694;51.748;14.326;2023-07-20T09:30:07;4.60;;;1.63;;
51612;SDS011;37694;51.748;14.326;2023-07-20T09:35:06;4.13;;;1.40;;
51612;SDS011;37694;51.748;14.326;2023-07-20T09:37:37;2.40;;;1.42;;
51612;SDS011;37694;51.748;14.326;2023-07-20T09:40:03;3.88;;;1.60;;
51612;SDS011;37694;51.748;14.326;2023-07-20T09:42:33;2.50;;;1.65;;
51612;SDS011;37694;51.748;14.326;2023-07-20T09:45:01;3.00;;;1.42;;
51612;SDS011;37694;51.748;14.326;2023-07-20T09:47:27;4.20;;;1.50;;
51612;SDS011;37694;51.748;14.326;2023-07-20T09:50:00;4.53;;;1.50;;
51612;SDS011;37694;51.748;14.326;2023-07-20T09:52:25;1.55;;;1.25;;
51612;SDS011;37694;51.748;14.326;2023-07-20T09:54:52;3.83;;;1.45;;
51612;SDS011;37694;51.748;14.326;2023-07-20T09:57:19;1.83;;;1.20;;
51612;SDS011;37694;51.748;14.326;2023-07-20T09:59:46;2.85;;;1.50;;
51612;SDS011;37694;51.748;14.326;2023-07-20T10:02:16;6.97;;;1.95;;
51612;SDS011;37694;51.748;14.326;2023-07-20T10:04:53;4.60;;;1.40;;
51612;SDS011;37694;51.748;14.326;2023-07-20T10:07:21;2.05;;;1.38;;
51612;SDS011;37694;51.748;14.326;2023-07-20T10:09:50;4.45;;;1.45;;
51612;SDS011;37694;51.748;14.326;2023-07-20T10:12:17;5.15;;;1.58;;
51612;SDS011;37694;51.748;14.326;2023-07-20T10:14:50;6.00;;;1.27;;
51612;SDS011;37694;51.748;14.326;2023-07-20T10:17:21;1.77;;;1.35;;
51612;SDS011;37694;51.748;14.326;2023-07-20T10:19:51;2.08;;;1.58;;
51612;SDS011;37694;51.748;14.326;2023-07-20T10:22:26;5.65;;;1.50;;
51612;SDS011;37694;51.748;14.326;2023-07-20T10:24:52;1.95;;;1.30;;
51612;SDS011;37694;51.748;14.326;2023-07-20T10:27:19;1.67;;;1.45;;
51612;SDS011;37694;51.748;14.326;2023-07-20T10:29:45;2.03;;;1.10;;
51612;SDS011;37694;51.748;14.326;2023-07-20T10:32:12;1.20;;;1.10;;
51612;SDS011;37694;51.748;14.326;2023-07-20T10:34:38;1.23;;;0.93;;
51612;SDS011;37694;51.748;14.326;2023-07-20T10:37:04;2.35;;;1.10;;
51612;SDS011;37694;51.748;14.326;2023-07-20T10:39:31;1.40;;;0.95;;
51612;SDS011;37694;51.748;14.326;2023-07-20T10:42:00;1.42;;;0.90;;
51612;SDS011;37694;51.748;14.326;2023-07-20T10:44:27;4.13;;;0.90;;
51612;SDS011;37694;51.748;14.326;2023-07-20T10:46:58;1.15;;;1.00;;
51612;SDS011;37694;51.748;14.326;2023-07-20T10:49:27;0.95;;;0.82;;
51612;SDS011;37694;51.748;14.326;2023-07-20T10:51:58;2.08;;;0.82;;
51612;SDS011;37694;51.748;14.326;2023-07-20T10:56:54;0.82;;;0.75;;
51612;SDS011;37694;51.748;14.326;2023-07-20T11:01:50;6.90;;;1.08;;
51612;SDS011;37694;51.748;14.326;2023-07-20T11:04:39;5.60;;;0.90;;
51612;SDS011;37694;51.748;14.326;2023-07-20T11:07:09;4.88;;;0.90;;
51612;SDS011;37694;51.748;14.326;2023-07-20T11:09:35;1.25;;;0.80;;
51612;SDS011;37694;51.748;14.326;2023-07-20T11:12:11;1.08;;;0.70;;
51612;SDS011;37694;51.748;14.326;2023-07-20T11:14:54;0.98;;;0.70;;
51612;SDS011;37694;51.748;14.326;2023-07-20T11:17:30;2.30;;;1.05;;
51612;SDS011;37694;51.748;14.326;2023-07-20T11:19:57;0.90;;;0.90;;
51612;SDS011;37694;51.748;14.326;2023-07-20T11:22:25;7.10;;;1.67;;
51612;SDS011;37694;51.748;14.326;2023-07-20T11:24:55;4.70;;;1.23;;
51612;SDS011;37694;51.748;14.326;2023-07-20T11:27:21;11.27;;;1.30;;
51612;SDS011;37694;51.748;14.326;2023-07-20T11:29:49;6.30;;;1.00;;
51612;SDS011;37694;51.748;14.326;2023-07-20T11:32:21;17.88;;;1.27;;
51612;SDS011;37694;51.748;14.326;2023-07-20T11:34:48;6.53;;;1.00;;
51612;SDS011;37694;51.748;14.326;2023-07-20T11:37:14;5.82;;;1.10;;
51612;SDS011;37694;51.748;14.326;2023-07-20T11:39:41;3.28;;;0.90;;
51612;SDS011;37694;51.748;14.326;2023-07-20T11:42:07;4.20;;;0.90;;
51612;SDS011;37694;51.748;14.326;2023-07-20T11:44:33;6.53;;;1.23;;
51612;SDS011;37694;51.748;14.326;2023-07-20T11:47:07;2.72;;;1.05;;
51612;SDS011;37694;51.748;14.326;2023-07-20T11:49:37;10.13;;;0.95;;
51612;SDS011;37694;51.748;14.326;2023-07-20T11:52:08;3.05;;;0.82;;
51612;SDS011;37694;51.748;14.326;2023-07-20T11:54:35;4.68;;;0.80;;
51612;SDS011;37694;51.748;14.326;2023-07-20T11:57:04;2.85;;;0.85;;
51612;SDS011;37694;51.748;14.326;2023-07-20T11:59:33;10.73;;;0.98;;
51612;SDS011;37694;51.748;14.326;2023-07-20T12:02:02;2.28;;;0.95;;
51612;SDS011;37694;51.748;14.326;2023-07-20T12:04:28;1.05;;;0.80;;
51612;SDS011;37694;51.748;14.326;2023-07-20T12:06:56;1.50;;;0.68;;
51612;SDS011;37694;51.748;14.326;2023-07-20T12:09:21;0.70;;;0.70;;
51612;SDS011;37694;51.748;14.326;2023-07-20T12:11:48;3.45;;;0.63;;
51612;SDS011;37694;51.748;14.326;2023-07-20T12:14:15;1.25;;;1.02;;
51612;SDS011;37694;51.748;14.326;2023-07-20T12:16:41;1.48;;;0.88;;
51612;SDS011;37694;51.748;14.326;2023-07-20T12:19:08;0.77;;;0.70;;
51612;SDS011;37694;51.748;14.326;2023-07-20T12:21:38;0.73;;;0.73;;
51612;SDS011;37694;51.748;14.326;2023-07-20T12:24:07;0.80;;;0.80;;
51612;SDS011;37694;51.748;14.326;2023-07-20T12:26:35;5.50;;;1.13;;
51612;SDS011;37694;51.748;14.326;2023-07-20T12:29:00;2.58;;;0.77;;
51612;SDS011;37694;51.748;14.326;2023-07-20T12:31:28;9.50;;;1.08;;
51612;SDS011;37694;51.748;14.326;2023-07-20T12:33:56;2.33;;;0.80;;
51612;SDS011;37694;51.748;14.326;2023-07-20T12:36:22;2.25;;;0.77;;
51612;SDS011;37694;51.748;14.326;2023-07-20T12:38:48;6.88;;;1.23;;
51612;SDS011;37694;51.748;14.326;2023-07-20T12:41:14;1.38;;;0.82;;
51612;SDS011;37694;51.748;14.326;2023-07-20T12:43:41;1.05;;;0.70;;
51612;SDS011;37694;51.748;14.326;2023-07-20T12:46:07;1.55;;;0.98;;
51612;SDS011;37694;51.748;14.326;2023-07-20T12:48:33;3.45;;;1.00;;
51612;SDS011;37694;51.748;14.326;2023-07-20T12:51:01;4.50;;;1.10;;
51612;SDS011;37694;51.748;14.326;2023-07-20T12:53:28;2.42;;;1.30;;
51612;SDS011;37694;51.748;14.326;2023-07-20T12:55:54;7.53;;;1.55;;
51612;SDS011;37694;51.748;14.326;2023-07-20T12:58:19;5.65;;;1.33;;
51612;SDS011;37694;51.748;14.326;2023-07-20T13:00:45;1.30;;;0.82;;
51612;SDS011;37694;51.748;14.326;2023-07-20T13:03:11;5.03;;;0.65;;
51612;SDS011;37694;51.748;14.326;2023-07-20T13:05:36;0.77;;;0.77;;
51612;SDS011;37694;51.748;14.326;2023-07-20T13:08:02;9.77;;;1.10;;
51612;SDS011;37694;51.748;14.326;2023-07-20T13:10:28;4.18;;;1.10;;
51612;SDS011;37694;51.748;14.326;2023-07-20T13:12:54;6.57;;;1.20;;
51612;SDS011;37694;51.748;14.326;2023-07-20T13:15:20;1.35;;;1.02;;
51612;SDS011;37694;51.748;14.326;2023-07-20T13:17:49;2.47;;;0.90;;
51612;SDS011;37694;51.748;14.326;2023-07-20T13:20:15;6.47;;;0.75;;
51612;SDS011;37694;51.748;14.326;2023-07-20T13:22:41;1.73;;;1.25;;
51612;SDS011;37694;51.748;14.326;2023-07-20T13:25:07;1.52;;;0.95;;
51612;SDS011;37694;51.748;14.326;2023-07-20T13:27:33;0.98;;;0.98;;
51612;SDS011;37694;51.748;14.326;2023-07-20T13:29:59;2.65;;;0.90;;
51612;SDS011;37694;51.748;14.326;2023-07-20T13:32:26;2.35;;;0.70;;
51612;SDS011;37694;51.748;14.326;2023-07-20T13:34:52;1.35;;;0.90;;
51612;SDS011;37694;51.748;14.326;2023-07-20T13:37:18;0.60;;;0.60;;
51612;SDS011;37694;51.748;14.326;2023-07-20T13:39:44;3.25;;;1.00;;
51612;SDS011;37694;51.748;14.326;2023-07-20T13:42:10;1.30;;;0.73;;
51612;SDS011;37694;51.748;14.326;2023-07-20T13:44:37;1.27;;;0.80;;
51612;SDS011;37694;51.748;14.326;2023-07-20T13:47:03;3.22;;;0.82;;
51612;SDS011;37694;51.748;14.326;2023-07-20T13:49:32;1.05;;;0.95;;
51612;SDS011;37694;51.748;14.326;2023-07-20T13:51:58;4.00;;;1.33;;
51612;SDS011;37694;51.748;14.326;2023-07-20T13:54:24;4.53;;;1.40;;
51612;SDS011;37694;51.748;14.326;2023-07-20T13:56:50;1.17;;;1.08;;
51612;SDS011;37694;51.748;14.326;2023-07-20T13:59:16;1.65;;;1.38;;
51612;SDS011;37694;51.748;14.326;2023-07-20T14:01:42;3.13;;;0.93;;
51612;SDS011;37694;51.748;14.326;2023-07-20T14:04:08;0.90;;;0.90;;
51612;SDS011;37694;51.748;14.326;2023-07-20T14:06:34;0.80;;;0.80;;
51612;SDS011;37694;51.748;14.326;2023-07-20T14:09:00;1.30;;;1.20;;
51612;SDS011;37694;51.748;14.326;2023-07-20T14:11:27;3.35;;;1.20;;
51612;SDS011;37694;51.748;14.326;2023-07-20T14:13:53;3.45;;;1.35;;
51612;SDS011;37694;51.748;14.326;2023-07-20T14:16:22;1.85;;;1.23;;
51612;SDS011;37694;51.748;14.326;2023-07-20T14:18:48;2.03;;;1.70;;
51612;SDS011;37694;51.748;14.326;2023-07-20T14:21:15;1.50;;;1.38;;
51612;SDS011;37694;51.748;14.326;2023-07-20T14:23:41;2.03;;;1.60;;
51612;SDS011;37694;51.748;14.326;2023-07-20T14:26:07;6.10;;;1.98;;
51612;SDS011;37694;51.748;14.326;2023-07-20T14:28:34;9.07;;;1.85;;
51612;SDS011;37694;51.748;14.326;2023-07-20T14:31:00;7.82;;;1.95;;
51612;SDS011;37694;51.748;14.326;2023-07-20T14:33:25;5.90;;;2.30;;
51612;SDS011;37694;51.748;14.326;2023-07-20T14:35:51;4.57;;;2.70;;
51612;SDS011;37694;51.748;14.326;2023-07-20T14:38:17;10.77;;;2.55;;
51612;SDS011;37694;51.748;14.326;2023-07-20T14:40:42;11.98;;;3.60;;
51612;SDS011;37694;51.748;14.326;2023-07-20T14:43:09;10.23;;;3.00;;
51612;SDS011;37694;51.748;14.326;2023-07-20T14:45:35;21.27;;;2.47;;
51612;SDS011;37694;51.748;14.326;2023-07-20T14:48:03;12.45;;;3.22;;